createdAt,value
2018-04-17T00:01:45.546Z,103.13
2018-04-17T00:04:13.080Z,122.83
2018-04-17T00:06:40.671Z,127.70
2018-04-17T00:09:09.020Z,139.57
2018-04-17T00:11:36.665Z,129.60
2018-04-17T00:14:04.244Z,134.43
2018-04-17T00:16:31.774Z,138.90
2018-04-17T00:18:59.390Z,123.13
2018-04-17T00:21:27.004Z,152.90
2018-04-17T00:23:54.544Z,129.23
2018-04-17T00:26:22.170Z,136.37
2018-04-17T00:28:50.477Z,119.37
2018-04-17T00:31:18.044Z,115.27
2018-04-17T00:33:45.759Z,139.50
2018-04-17T00:36:13.326Z,107.40
2018-04-17T00:38:40.877Z,138.23
2018-04-17T00:41:08.636Z,147.67
2018-04-17T00:43:36.182Z,138.90
2018-04-17T00:46:03.724Z,112.20
2018-04-17T00:48:31.426Z,135.07
2018-04-17T00:50:59.772Z,126.77
2018-04-17T00:53:39.131Z,102.67
2018-04-17T00:56:06.721Z,113.57
2018-04-17T00:58:35.026Z,117.33
2018-04-17T01:01:02.639Z,123.80
2018-04-17T01:03:30.264Z,142.63
2018-04-17T01:05:57.837Z,116.73
2018-04-17T01:08:25.428Z,134.30
2018-04-17T01:10:53.770Z,114.90
2018-04-17T01:13:21.335Z,124.07
2018-04-17T01:15:48.953Z,110.93
2018-04-17T01:18:16.521Z,113.90
2018-04-17T01:20:44.079Z,113.03
2018-04-17T01:23:11.619Z,103.77
2018-04-17T01:25:39.942Z,117.23
2018-04-17T01:28:07.698Z,105.03
2018-04-17T01:30:35.228Z,112.60
2018-04-17T01:33:03.551Z,130.53
2018-04-17T01:35:31.140Z,117.27
2018-04-17T01:37:58.884Z,108.83
2018-04-17T01:40:26.483Z,106.77
2018-04-17T01:42:54.156Z,108.37
2018-04-17T01:45:21.698Z,117.30
2018-04-17T01:47:50.096Z,94.73
2018-04-17T01:50:17.769Z,93.67
2018-04-17T01:52:45.335Z,85.77
2018-04-17T01:55:12.915Z,87.97
2018-04-17T01:57:40.458Z,93.33
2018-04-17T02:00:07.999Z,86.20
2018-04-17T02:02:35.534Z,78.27
2018-04-17T02:05:03.866Z,89.47
2018-04-17T02:07:31.458Z,78.47
2018-04-17T02:09:59.020Z,82.27
2018-04-17T02:12:26.666Z,89.33
2018-04-17T02:14:54.330Z,85.77
2018-04-17T02:17:22.625Z,83.20
2018-04-17T02:19:50.157Z,76.67
2018-04-17T02:22:17.829Z,72.90
2018-04-17T02:24:46.140Z,72.17
2018-04-17T02:27:14.578Z,78.50
2018-04-17T02:29:42.275Z,82.93
2018-04-17T02:32:10.565Z,84.23
2018-04-17T02:34:38.112Z,74.60
2018-04-17T02:37:06.459Z,74.20
2018-04-17T02:39:34.092Z,75.63
2018-04-17T02:42:01.822Z,84.07
2018-04-17T02:44:29.334Z,73.40
2018-04-17T02:46:56.850Z,83.40
2018-04-17T02:49:24.421Z,79.50
2018-04-17T02:51:51.987Z,77.10
2018-04-17T02:54:19.612Z,88.40
2018-04-17T02:56:47.258Z,71.60
2018-04-17T02:59:15.577Z,77.60
2018-04-17T03:01:43.140Z,77.83
2018-04-17T03:04:10.696Z,75.37
2018-04-17T03:06:38.255Z,69.63
2018-04-17T03:09:06.663Z,65.70
2018-04-17T03:11:34.234Z,69.77
2018-04-17T03:14:01.802Z,71.83
2018-04-17T03:16:30.131Z,73.37
2018-04-17T03:18:57.718Z,77.27
2018-04-17T03:21:26.030Z,65.10
2018-04-17T03:23:54.372Z,70.53
2018-04-17T03:26:22.003Z,72.83
2018-04-17T03:28:49.679Z,64.40
2018-04-17T03:31:17.263Z,67.30
2018-04-17T03:33:44.837Z,63.47
2018-04-17T03:36:13.180Z,62.70
2018-04-17T03:38:41.721Z,60.40
2018-04-17T03:41:09.307Z,63.33
2018-04-17T03:43:36.826Z,68.07
2018-04-17T03:46:05.249Z,70.23
2018-04-17T03:48:32.773Z,64.53
2018-04-17T03:51:00.338Z,66.43
2018-04-17T03:53:27.953Z,60.73
2018-04-17T03:55:55.525Z,64.87
2018-04-17T03:58:23.067Z,63.53
2018-04-17T04:00:50.637Z,76.03
2018-04-17T04:03:18.150Z,80.30
2018-04-17T04:05:45.744Z,67.57
2018-04-17T04:08:13.318Z,55.83
2018-04-17T04:10:41.659Z,55.93
2018-04-17T04:13:09.279Z,63.80
2018-04-17T04:15:37.618Z,55.77
2018-04-17T04:18:17.148Z,59.23
2018-04-17T04:20:56.611Z,60.97
2018-04-17T04:23:35.838Z,62.73
2018-04-17T04:26:15.950Z,57.00
2018-04-17T04:28:43.541Z,59.17
2018-04-17T04:31:11.142Z,59.63
2018-04-17T04:33:39.506Z,61.43
2018-04-17T04:36:07.078Z,58.00
2018-04-17T04:38:35.418Z,60.07
2018-04-17T04:41:02.965Z,60.37
2018-04-17T04:43:30.613Z,52.47
2018-04-17T04:45:58.193Z,56.40
2018-04-17T04:48:25.741Z,60.70
2018-04-17T04:50:53.335Z,54.27
2018-04-17T04:53:20.902Z,71.97
2018-04-17T04:55:48.618Z,60.40
2018-04-17T04:58:16.189Z,52.63
2018-04-17T05:00:43.714Z,56.47
2018-04-17T05:03:11.547Z,58.53
2018-04-17T05:05:54.960Z,53.37
2018-04-17T05:08:22.558Z,51.83
2018-04-17T05:10:50.904Z,54.67
2018-04-17T05:13:18.550Z,54.53
2018-04-17T05:15:46.268Z,50.50
2018-04-17T05:18:13.822Z,44.87
2018-04-17T05:20:42.126Z,55.87
2018-04-17T05:23:09.663Z,44.13
2018-04-17T05:25:37.220Z,48.97
2018-04-17T05:28:05.635Z,37.93
2018-04-17T05:30:33.196Z,38.37
2018-04-17T05:33:00.742Z,38.67
2018-04-17T05:35:28.302Z,36.93
2018-04-17T05:37:55.879Z,31.43
2018-04-17T05:40:23.427Z,34.70
2018-04-17T05:42:50.985Z,33.37
2018-04-17T05:45:18.539Z,29.17
2018-04-17T05:47:46.210Z,27.67
2018-04-17T05:50:13.795Z,35.43
2018-04-17T05:52:41.318Z,30.10
2018-04-17T05:55:08.874Z,32.47
2018-04-17T05:57:36.440Z,31.00
2018-04-17T06:02:55.036Z,27.70
2018-04-17T06:05:22.560Z,36.93
2018-04-17T06:07:50.085Z,27.67
2018-04-17T06:10:18.407Z,26.87
2018-04-17T06:12:45.959Z,32.47
2018-04-17T06:15:13.545Z,28.07
2018-04-17T06:17:41.179Z,28.60
2018-04-17T06:20:08.758Z,22.47
2018-04-17T06:22:37.079Z,25.60
2018-04-17T06:25:05.382Z,22.33
2018-04-17T06:27:32.909Z,23.00
2018-04-17T06:30:01.219Z,22.63
2018-04-17T06:32:28.746Z,22.00
2018-04-17T06:34:57.125Z,19.03
2018-04-17T06:37:25.418Z,12.37
2018-04-17T06:39:53.702Z,20.70
2018-04-17T06:42:21.287Z,18.20
2018-04-17T06:44:48.830Z,23.43
2018-04-17T06:47:16.401Z,23.73
2018-04-17T06:49:43.952Z,21.70
2018-04-17T06:52:11.478Z,18.63
2018-04-17T06:54:39.819Z,20.93
2018-04-17T06:57:07.359Z,17.20
2018-04-17T06:59:34.906Z,22.90
2018-04-17T07:02:02.458Z,23.43
2018-04-17T07:04:30.025Z,19.63
2018-04-17T07:06:58.340Z,22.63
2018-04-17T07:09:25.938Z,20.60
2018-04-17T07:11:54.218Z,21.07
2018-04-17T07:14:22.530Z,15.10
2018-04-17T07:16:50.058Z,17.30
2018-04-17T07:19:17.586Z,16.93
2018-04-17T07:21:45.127Z,17.17
2018-04-17T07:24:12.733Z,18.03
2018-04-17T07:26:40.418Z,20.90
2018-04-17T07:29:08.001Z,11.00
2018-04-17T07:31:35.533Z,18.80
2018-04-17T07:34:03.083Z,17.70
2018-04-17T07:36:30.658Z,10.67
2018-04-17T07:38:58.227Z,10.27
2018-04-17T07:41:25.746Z,19.53
2018-04-17T07:43:54.083Z,17.20
2018-04-17T07:46:23.122Z,20.60
2018-04-17T07:48:51.422Z,17.30
2018-04-17T07:51:19.009Z,16.17
2018-04-17T07:53:46.641Z,17.93
2018-04-17T07:56:14.198Z,14.80
2018-04-17T07:58:41.796Z,13.50
2018-04-17T08:01:09.459Z,14.37
2018-04-17T08:03:36.984Z,18.17
2018-04-17T08:06:04.559Z,15.90
2018-04-17T08:08:32.122Z,11.67
2018-04-17T08:10:59.642Z,15.80
2018-04-17T08:13:27.207Z,17.40
2018-04-17T08:15:54.725Z,10.70
2018-04-17T08:18:22.298Z,13.27
2018-04-17T08:20:50.613Z,21.60
2018-04-17T08:23:18.143Z,11.47
2018-04-17T08:25:46.479Z,12.13
2018-04-17T08:28:14.110Z,11.37
2018-04-17T08:30:41.658Z,12.70
2018-04-17T08:33:09.224Z,14.53
2018-04-17T08:35:36.783Z,12.03
2018-04-17T08:38:04.322Z,8.90
2018-04-17T08:40:31.901Z,15.03
2018-04-17T08:42:59.499Z,10.20
2018-04-17T08:45:27.152Z,22.13
2018-04-17T08:47:54.749Z,15.30
2018-04-17T08:50:23.070Z,11.97
2018-04-17T08:52:50.611Z,9.43
2018-04-17T08:55:18.188Z,9.17
2018-04-17T08:57:45.749Z,14.07
2018-04-17T09:00:13.310Z,15.33
2018-04-17T09:02:40.876Z,17.03
2018-04-17T09:05:08.403Z,18.77
2018-04-17T09:07:35.952Z,11.60
2018-04-17T09:10:03.490Z,8.33
2018-04-17T09:12:31.015Z,16.47
2018-04-17T09:14:58.557Z,9.47
2018-04-17T09:17:26.213Z,10.20
2018-04-17T09:19:53.790Z,13.23
2018-04-17T09:22:21.359Z,6.60
2018-04-17T09:24:49.118Z,12.10
2018-04-17T09:27:16.684Z,6.60
2018-04-17T09:29:44.237Z,8.90
2018-04-17T09:32:11.759Z,6.37
2018-04-17T09:34:39.316Z,11.30
2018-04-17T09:37:06.850Z,10.57
2018-04-17T09:39:35.170Z,9.00
2018-04-17T09:42:02.682Z,8.83
2018-04-17T09:44:30.974Z,7.57
2018-04-17T09:46:59.290Z,8.43
2018-04-17T09:49:26.839Z,6.60
2018-04-17T09:51:54.404Z,7.10
2018-04-17T09:54:22.057Z,7.20
2018-04-17T09:56:49.647Z,9.50
2018-04-17T09:59:17.175Z,10.43
2018-04-17T10:01:44.731Z,8.40
2018-04-17T10:04:12.280Z,9.10
2018-04-17T10:06:39.844Z,10.83
2018-04-17T10:09:07.497Z,6.00
2018-04-17T10:11:34.976Z,6.37
2018-04-17T10:14:02.525Z,9.03
2018-04-17T10:16:30.148Z,10.30
2018-04-17T10:18:58.473Z,7.87
2018-04-17T10:21:26.011Z,6.63
2018-04-17T10:23:53.533Z,9.23
2018-04-17T10:26:21.175Z,7.70
2018-04-17T10:28:48.795Z,5.87
2018-04-17T10:31:16.373Z,5.80
2018-04-17T10:33:43.933Z,7.03
2018-04-17T10:36:11.595Z,6.13
2018-04-17T10:38:39.109Z,5.33
2018-04-17T10:41:07.427Z,6.80
2018-04-17T10:43:34.990Z,6.50
2018-04-17T10:46:02.578Z,6.60
2018-04-17T10:48:30.115Z,9.07
2018-04-17T10:50:57.672Z,9.27
2018-04-17T10:53:25.226Z,7.10
2018-04-17T10:55:52.780Z,11.23
2018-04-17T10:58:20.356Z,8.20
2018-04-17T11:00:47.901Z,9.57
2018-04-17T11:03:15.470Z,8.13
2018-04-17T11:05:43.019Z,9.53
2018-04-17T11:08:10.615Z,7.60
2018-04-17T11:10:38.240Z,8.93
2018-04-17T11:13:05.836Z,8.47
2018-04-17T11:15:33.404Z,10.50
2018-04-17T11:18:00.920Z,9.50
2018-04-17T11:20:28.452Z,11.83
2018-04-17T11:22:56.787Z,13.33
2018-04-17T11:25:24.305Z,15.27
2018-04-17T11:27:51.866Z,8.47
2018-04-17T11:30:19.406Z,14.10
2018-04-17T11:32:46.976Z,15.07
2018-04-17T11:35:14.555Z,11.17
2018-04-17T11:37:42.082Z,11.57
2018-04-17T11:40:10.378Z,15.43
2018-04-17T11:42:37.966Z,15.20
2018-04-17T11:45:05.494Z,10.70
2018-04-17T11:47:33.022Z,13.40
2018-04-17T11:50:01.486Z,15.37
2018-04-17T11:52:29.047Z,12.10
2018-04-17T11:54:56.572Z,16.83
2018-04-17T11:57:24.122Z,16.13
2018-04-17T11:59:51.649Z,11.13
2018-04-17T12:02:20.020Z,13.30
2018-04-17T12:04:48.353Z,13.80
2018-04-17T12:07:19.312Z,13.50
2018-04-17T12:09:46.875Z,12.67
2018-04-17T12:12:14.496Z,15.20
2018-04-17T12:14:42.090Z,14.50
2018-04-17T12:17:09.900Z,12.00
2018-04-17T12:19:37.451Z,19.07
2018-04-17T12:22:05.102Z,18.63
2018-04-17T12:24:33.441Z,16.53
2018-04-17T12:27:01.002Z,12.80
2018-04-17T12:29:28.533Z,10.73
2018-04-17T12:31:56.094Z,15.90
2018-04-17T12:34:23.735Z,12.20
2018-04-17T12:36:51.291Z,12.47
2018-04-17T12:39:18.905Z,10.90
2018-04-17T12:41:46.487Z,15.87
2018-04-17T12:44:14.775Z,12.93
2018-04-17T12:46:43.122Z,13.20
2018-04-17T12:49:10.641Z,12.67
2018-04-17T12:51:38.206Z,9.43
2018-04-17T12:54:05.868Z,11.90
2018-04-17T12:56:33.455Z,11.47
2018-04-17T12:59:01.084Z,13.97
2018-04-17T13:01:28.673Z,14.50
2018-04-17T13:03:56.235Z,12.80
2018-04-17T13:06:23.854Z,13.30
2018-04-17T13:08:51.459Z,10.93
2018-04-17T13:11:19.006Z,10.30
2018-04-17T13:13:46.536Z,13.63
2018-04-17T13:16:14.094Z,11.50
2018-04-17T13:18:41.629Z,17.97
2018-04-17T13:21:09.950Z,14.73
2018-04-17T13:23:37.490Z,16.67
2018-04-17T13:26:05.051Z,13.50
2018-04-17T13:28:32.620Z,19.50
2018-04-17T13:31:00.142Z,19.63
2018-04-17T13:33:28.497Z,14.60
2018-04-17T13:35:56.108Z,17.20
2018-04-17T13:38:23.707Z,12.77
2018-04-17T13:40:51.359Z,21.80
2018-04-17T13:43:18.956Z,17.40
2018-04-17T13:45:47.251Z,14.00
2018-04-17T13:48:14.815Z,14.93
2018-04-17T13:50:42.393Z,17.20
2018-04-17T13:53:10.010Z,15.47
2018-04-17T13:55:38.368Z,12.30
2018-04-17T13:58:05.939Z,15.30
2018-04-17T14:00:34.303Z,12.20
2018-04-17T14:03:01.841Z,13.17
2018-04-17T14:05:29.401Z,14.27
2018-04-17T14:07:56.947Z,18.23
2018-04-17T14:10:24.505Z,12.90
2018-04-17T14:12:52.076Z,13.87
2018-04-17T14:15:19.647Z,12.40
2018-04-17T14:17:47.215Z,13.90
2018-04-17T14:20:14.787Z,10.37
2018-04-17T14:22:42.427Z,18.60
2018-04-17T14:25:09.978Z,14.60
2018-04-17T14:27:37.574Z,17.30
2018-04-17T14:30:05.102Z,15.30
2018-04-17T14:32:32.651Z,12.03
2018-04-17T14:35:00.174Z,12.10
2018-04-17T14:37:28.503Z,20.33
2018-04-17T14:39:56.135Z,12.00
2018-04-17T14:42:23.699Z,23.23
2018-04-17T14:44:51.240Z,15.30
2018-04-17T14:47:18.813Z,13.40
2018-04-17T14:49:46.418Z,10.87
2018-04-17T14:52:13.974Z,11.80
2018-04-17T14:54:41.639Z,15.07
2018-04-17T14:57:09.166Z,17.97
2018-04-17T14:59:36.750Z,14.17
2018-04-17T15:02:05.806Z,11.93
2018-04-17T15:04:33.397Z,12.50
2018-04-17T15:07:00.924Z,11.23
2018-04-17T15:09:28.527Z,14.63
2018-04-17T15:11:56.176Z,10.30
2018-04-17T15:14:23.755Z,14.27
2018-04-17T15:16:51.367Z,9.50
2018-04-17T15:19:18.931Z,10.40
2018-04-17T15:21:46.487Z,11.73
2018-04-17T15:24:14.131Z,12.63
2018-04-17T15:26:41.802Z,12.17
2018-04-17T15:29:09.358Z,13.90
2018-04-17T15:31:36.876Z,17.50
2018-04-17T15:34:04.408Z,10.37
2018-04-17T15:36:31.948Z,13.10
2018-04-17T15:38:59.500Z,17.67
2018-04-17T15:41:27.168Z,14.70
2018-04-17T15:43:54.726Z,15.43
2018-04-17T15:46:22.291Z,10.20
2018-04-17T15:48:49.973Z,14.60
2018-04-17T15:51:17.513Z,15.93
2018-04-17T15:53:45.033Z,14.20
2018-04-17T15:56:13.356Z,14.13
2018-04-17T15:58:40.919Z,16.57
2018-04-17T16:01:08.520Z,15.83
2018-04-17T16:03:36.843Z,16.20
2018-04-17T16:06:04.377Z,18.87
2018-04-17T16:08:31.906Z,11.30
2018-04-17T16:10:59.513Z,11.93
2018-04-17T16:13:27.067Z,15.50
2018-04-17T16:15:54.633Z,20.97
2018-04-17T16:18:22.223Z,15.43
2018-04-17T16:20:49.758Z,16.93
2018-04-17T16:23:17.339Z,15.53
2018-04-17T16:25:44.933Z,14.60
2018-04-17T16:28:13.257Z,13.70
2018-04-17T16:30:40.790Z,16.40
2018-04-17T16:33:08.465Z,20.33
2018-04-17T16:35:36.021Z,18.77
2018-04-17T16:38:03.563Z,14.53
2018-04-17T16:40:31.888Z,15.53
2018-04-17T16:42:59.417Z,16.20
2018-04-17T16:45:26.962Z,14.90
2018-04-17T16:47:54.554Z,23.43
2018-04-17T16:50:22.073Z,15.13
2018-04-17T16:52:50.362Z,15.70
2018-04-17T16:55:17.986Z,12.77
2018-04-17T16:57:45.572Z,20.87
2018-04-17T17:00:13.130Z,22.03
2018-04-17T17:02:41.468Z,20.17
2018-04-17T17:05:09.028Z,15.63
2018-04-17T17:07:36.582Z,17.87
2018-04-17T17:10:04.154Z,14.83
2018-04-17T17:12:31.677Z,14.93
2018-04-17T17:14:59.232Z,18.00
2018-04-17T17:17:26.832Z,17.10
2018-04-17T17:19:54.483Z,19.03
2018-04-17T17:22:22.108Z,26.80
2018-04-17T17:24:49.689Z,18.40
2018-04-17T17:27:17.308Z,17.70
2018-04-17T17:29:44.928Z,18.27
2018-04-17T17:32:12.488Z,22.07
2018-04-17T17:34:40.017Z,17.30
2018-04-17T17:37:07.571Z,22.90
2018-04-17T17:39:35.156Z,20.77
2018-04-17T17:42:02.750Z,23.37
2018-04-17T17:44:31.068Z,28.93
2018-04-17T17:46:58.634Z,20.97
2018-04-17T17:49:26.186Z,29.23
2018-04-17T17:51:53.718Z,28.03
2018-04-17T17:54:22.041Z,23.27
2018-04-17T17:56:49.561Z,26.60
2018-04-17T17:59:17.483Z,30.17
2018-04-17T18:01:45.091Z,28.43
2018-04-17T18:04:12.984Z,28.40
2018-04-17T18:06:40.543Z,26.10
2018-04-17T18:09:08.070Z,32.47
2018-04-17T18:11:36.380Z,29.73
2018-04-17T18:14:03.963Z,26.90
2018-04-17T18:16:31.522Z,28.17
2018-04-17T18:18:59.822Z,27.83
2018-04-17T18:21:28.145Z,24.30
2018-04-17T18:23:55.675Z,27.40
2018-04-17T18:26:23.972Z,22.97
2018-04-17T18:28:51.534Z,25.93
2018-04-17T18:31:19.086Z,31.80
2018-04-17T18:33:46.626Z,30.60
2018-04-17T18:36:14.975Z,26.93
2018-04-17T18:38:42.509Z,25.97
2018-04-17T18:41:10.067Z,34.93
2018-04-17T18:43:37.685Z,24.70
2018-04-17T18:46:06.090Z,24.87
2018-04-17T18:48:33.648Z,24.80
2018-04-17T18:51:01.212Z,22.27
2018-04-17T18:53:28.752Z,29.60
2018-04-17T18:55:56.325Z,24.70
2018-04-17T18:58:23.899Z,33.00
2018-04-17T19:00:51.591Z,25.03
2018-04-17T19:03:19.159Z,35.87
2018-04-17T19:05:46.718Z,31.37
2018-04-17T19:08:15.036Z,33.20
2018-04-17T19:10:42.575Z,25.93
2018-04-17T19:13:10.195Z,29.07
2018-04-17T19:15:37.729Z,24.90
2018-04-17T19:18:05.266Z,25.50
2018-04-17T19:20:32.839Z,34.13
2018-04-17T19:23:00.406Z,30.30
2018-04-17T19:25:27.991Z,29.97
2018-04-17T19:27:55.654Z,26.83
2018-04-17T19:30:23.387Z,24.40
2018-04-17T19:32:50.949Z,27.33
2018-04-17T19:35:18.551Z,27.83
2018-04-17T19:37:46.213Z,29.13
2018-04-17T19:40:13.789Z,23.90
2018-04-17T19:42:41.367Z,28.90
2018-04-17T19:45:08.890Z,32.23
2018-04-17T19:47:37.187Z,41.20
2018-04-17T19:50:05.599Z,24.50
2018-04-17T19:52:33.130Z,32.33
2018-04-17T19:55:01.433Z,35.63
2018-04-17T19:57:29.013Z,33.40
2018-04-17T19:59:56.570Z,28.87
2018-04-17T20:02:24.109Z,27.97
2018-04-17T20:04:51.670Z,27.23
2018-04-17T20:07:19.252Z,25.50
2018-04-17T20:09:47.108Z,31.30
2018-04-17T20:12:14.674Z,26.83
2018-04-17T20:14:42.199Z,23.33
2018-04-17T20:17:09.787Z,25.63
2018-04-17T20:19:37.505Z,29.90
2018-04-17T20:22:05.835Z,34.53
2018-04-17T20:24:33.476Z,33.03
2018-04-17T20:27:01.030Z,31.60
2018-04-17T20:29:28.602Z,27.47
2018-04-17T20:31:56.134Z,37.00
2018-04-17T20:34:23.663Z,25.07
2018-04-17T20:36:51.253Z,30.60
2018-04-17T20:39:18.817Z,38.57
2018-04-17T20:41:46.345Z,30.03
2018-04-17T20:44:14.663Z,26.70
2018-04-17T20:46:42.188Z,37.70
2018-04-17T20:49:10.631Z,30.23
2018-04-17T20:51:38.218Z,34.20
2018-04-17T20:54:05.807Z,28.00
2018-04-17T20:56:33.367Z,29.23
2018-04-17T20:59:00.972Z,27.10
2018-04-17T21:01:28.609Z,28.00
2018-04-17T21:03:56.130Z,26.67
2018-04-17T21:06:24.436Z,29.10
2018-04-17T21:08:51.997Z,30.40
2018-04-17T21:11:19.526Z,31.80
2018-04-17T21:13:47.887Z,30.50
2018-04-17T21:16:15.472Z,29.30
2018-04-17T21:18:43.027Z,34.07
2018-04-17T21:21:10.615Z,32.80
2018-04-17T21:23:38.173Z,34.80
2018-04-17T21:26:05.757Z,27.60
2018-04-17T21:28:33.489Z,32.80
2018-04-17T21:31:01.088Z,32.13
2018-04-17T21:33:28.631Z,34.40
2018-04-17T21:35:56.214Z,32.70
2018-04-17T21:38:23.750Z,35.17
2018-04-17T21:40:51.657Z,34.20
2018-04-17T21:43:19.945Z,38.23
2018-04-17T21:45:48.286Z,36.90
2018-04-17T21:48:15.867Z,28.13
2018-04-17T21:50:44.225Z,35.43
2018-04-17T21:53:11.958Z,37.13
2018-04-17T21:55:39.528Z,41.93
2018-04-17T21:58:07.069Z,31.63
2018-04-17T22:00:34.686Z,32.60
2018-04-17T22:03:02.251Z,31.03
2018-04-17T22:05:30.578Z,37.90
2018-04-17T22:07:58.169Z,30.03
2018-04-17T22:10:27.218Z,32.53
2018-04-17T22:12:54.764Z,31.23
2018-04-17T22:15:22.327Z,36.23
2018-04-17T22:17:49.855Z,29.73
2018-04-17T22:20:17.383Z,38.93
2018-04-17T22:22:44.954Z,38.20
2018-04-17T22:25:12.511Z,36.33
2018-04-17T22:27:40.066Z,35.70
2018-04-17T22:30:07.603Z,33.50
2018-04-17T22:32:35.199Z,33.50
2018-04-17T22:35:02.777Z,39.73
2018-04-17T22:37:31.093Z,41.00
2018-04-17T22:39:58.663Z,43.27
2018-04-17T22:42:26.246Z,48.00
2018-04-17T22:44:53.834Z,53.67
2018-04-17T22:47:22.138Z,57.77
2018-04-17T22:49:49.682Z,67.03
2018-04-17T22:52:17.974Z,68.70
2018-04-17T22:54:45.522Z,64.40
2018-04-17T22:57:13.100Z,57.67
2018-04-17T22:59:40.667Z,61.40
2018-04-17T23:02:08.454Z,64.53
2018-04-17T23:04:36.048Z,64.33
2018-04-17T23:07:04.347Z,64.73
2018-04-17T23:09:31.899Z,62.50
2018-04-17T23:11:59.438Z,64.20
2018-04-17T23:14:27.873Z,65.90
2018-04-17T23:16:55.395Z,73.40
2018-04-17T23:19:23.801Z,73.90
2018-04-17T23:21:51.345Z,69.20
2018-04-17T23:24:18.895Z,69.17
2018-04-17T23:26:47.198Z,68.03
2018-04-17T23:29:14.764Z,80.43
2018-04-17T23:31:42.313Z,91.13
2018-04-17T23:34:09.866Z,82.10
2018-04-17T23:36:37.444Z,75.43
2018-04-17T23:39:05.024Z,81.73
2018-04-17T23:41:32.551Z,82.23
2018-04-17T23:44:00.098Z,86.53
2018-04-17T23:46:27.662Z,81.70
2018-04-17T23:48:55.215Z,81.80
2018-04-17T23:51:22.891Z,97.03
2018-04-17T23:53:50.475Z,103.07
2018-04-17T23:56:18.031Z,96.77
2018-04-17T23:58:45.594Z,89.33
